createdAt,value
2018-07-15T00:01:35.522Z,99.90
2018-07-15T00:04:03.818Z,99.90
2018-07-15T00:06:32.080Z,99.90
2018-07-15T00:09:01.369Z,99.90
2018-07-15T00:11:29.623Z,99.90
2018-07-15T00:13:57.917Z,99.90
2018-07-15T00:16:26.221Z,99.90
2018-07-15T00:18:54.477Z,99.90
2018-07-15T00:21:22.741Z,99.90
2018-07-15T00:23:51.027Z,99.90
2018-07-15T00:26:19.337Z,99.90
2018-07-15T00:28:47.585Z,99.90
2018-07-15T00:31:17.079Z,99.90
2018-07-15T00:33:46.641Z,99.90
2018-07-15T00:36:14.900Z,99.90
2018-07-15T00:38:43.199Z,99.90
2018-07-15T00:41:11.492Z,99.90
2018-07-15T00:43:39.790Z,99.90
2018-07-15T00:46:08.968Z,99.90
2018-07-15T00:48:37.283Z,99.90
2018-07-15T00:51:05.564Z,99.90
2018-07-15T00:53:33.866Z,99.90
2018-07-15T00:56:02.138Z,99.90
2018-07-15T00:58:30.439Z,99.90
2018-07-15T01:00:58.701Z,99.90
2018-07-15T01:03:26.951Z,99.90
2018-07-15T01:05:55.228Z,99.90
2018-07-15T01:08:23.477Z,99.90
2018-07-15T01:10:51.764Z,99.90
2018-07-15T01:13:20.018Z,99.90
2018-07-15T01:15:48.298Z,99.90
2018-07-15T01:18:16.552Z,99.90
2018-07-15T01:20:44.848Z,99.90
2018-07-15T01:26:06.608Z,99.90
2018-07-15T01:28:34.919Z,99.90
2018-07-15T01:31:03.176Z,99.90
2018-07-15T01:33:31.438Z,99.90
2018-07-15T01:35:59.728Z,99.90
2018-07-15T01:38:28.014Z,99.90
2018-07-15T01:40:56.306Z,99.90
2018-07-15T01:43:24.596Z,99.90
2018-07-15T01:45:52.872Z,99.90
2018-07-15T01:48:21.187Z,99.90
2018-07-15T01:50:49.439Z,99.90
2018-07-15T01:53:17.729Z,99.90
2018-07-15T01:55:45.983Z,99.90
2018-07-15T01:58:15.280Z,99.90
2018-07-15T02:00:43.561Z,99.90
2018-07-15T02:03:11.826Z,99.90
2018-07-15T02:05:40.114Z,99.90
2018-07-15T02:08:08.367Z,99.90
2018-07-15T02:10:36.624Z,99.90
2018-07-15T02:13:04.904Z,99.90
2018-07-15T02:15:33.184Z,99.90
2018-07-15T02:18:01.468Z,99.90
2018-07-15T02:20:29.800Z,99.90
2018-07-15T02:23:01.576Z,99.90
2018-07-15T02:25:29.859Z,99.90
2018-07-15T02:27:58.113Z,99.90
2018-07-15T02:30:26.365Z,99.90
2018-07-15T02:32:54.644Z,99.90
2018-07-15T02:35:22.927Z,99.90
2018-07-15T02:37:51.212Z,99.90
2018-07-15T02:40:19.493Z,99.90
2018-07-15T02:42:47.745Z,99.90
2018-07-15T02:45:16.034Z,99.90
2018-07-15T02:47:45.372Z,99.90
2018-07-15T02:50:13.660Z,99.90
2018-07-15T02:52:41.908Z,99.90
2018-07-15T02:55:09.393Z,99.90
2018-07-15T02:57:38.188Z,99.90
2018-07-15T03:00:06.480Z,99.90
2018-07-15T03:02:34.738Z,99.90
2018-07-15T03:05:03.016Z,99.90
2018-07-15T03:07:31.267Z,99.90
2018-07-15T03:09:59.544Z,99.90
2018-07-15T03:12:27.801Z,99.90
2018-07-15T03:14:56.088Z,99.90
2018-07-15T03:17:24.413Z,99.90
2018-07-15T03:19:52.645Z,99.90
2018-07-15T03:22:20.928Z,99.90
2018-07-15T03:24:49.196Z,99.90
2018-07-15T03:27:17.478Z,99.90
2018-07-15T03:29:46.999Z,99.90
2018-07-15T03:32:16.224Z,99.90
2018-07-15T03:34:44.530Z,99.90
2018-07-15T03:37:12.804Z,99.90
2018-07-15T03:39:41.071Z,99.90
2018-07-15T03:42:09.349Z,99.90
2018-07-15T03:44:38.268Z,99.90
2018-07-15T03:47:06.551Z,99.90
2018-07-15T03:49:34.799Z,99.90
2018-07-15T03:52:03.055Z,99.90
2018-07-15T03:54:34.564Z,99.90
2018-07-15T03:57:02.817Z,99.90
2018-07-15T03:59:31.103Z,99.90
2018-07-15T04:01:59.352Z,99.90
2018-07-15T04:04:27.632Z,99.90
2018-07-15T04:06:55.890Z,99.90
2018-07-15T04:09:23.412Z,99.90
2018-07-15T04:11:51.659Z,99.90
2018-07-15T04:14:19.946Z,99.90
2018-07-15T04:16:48.199Z,99.90
2018-07-15T04:19:16.485Z,99.90
2018-07-15T04:21:45.796Z,99.90
2018-07-15T04:24:13.343Z,99.90
2018-07-15T04:26:41.626Z,99.90
2018-07-15T04:29:16.432Z,99.90
2018-07-15T04:31:45.049Z,99.90
2018-07-15T04:34:13.325Z,99.90
2018-07-15T04:36:41.612Z,99.90
2018-07-15T04:39:09.864Z,99.90
2018-07-15T04:41:39.001Z,99.90
2018-07-15T04:44:07.622Z,99.90
2018-07-15T04:46:35.908Z,99.90
2018-07-15T04:49:04.192Z,99.90
2018-07-15T04:51:32.486Z,99.90
2018-07-15T04:54:00.777Z,99.90
2018-07-15T04:56:29.035Z,99.90
2018-07-15T04:58:57.299Z,99.90
2018-07-15T05:01:25.577Z,99.90
2018-07-15T05:03:53.059Z,99.90
2018-07-15T05:06:20.580Z,99.90
2018-07-15T05:08:48.871Z,99.90
2018-07-15T05:11:17.189Z,99.90
2018-07-15T05:13:46.516Z,99.90
2018-07-15T05:16:15.784Z,99.90
2018-07-15T05:18:44.526Z,99.90
2018-07-15T05:21:12.805Z,99.90
2018-07-15T05:23:41.061Z,99.90
2018-07-15T05:26:09.353Z,99.90
2018-07-15T05:28:38.823Z,99.90
2018-07-15T05:31:07.900Z,99.90
2018-07-15T05:33:36.183Z,99.90
2018-07-15T05:36:04.439Z,99.90
2018-07-15T05:38:32.691Z,99.90
2018-07-15T05:41:00.979Z,99.90
2018-07-15T05:43:29.229Z,99.90
2018-07-15T05:45:57.477Z,99.90
2018-07-15T05:48:24.987Z,99.90
2018-07-15T05:50:53.288Z,99.90
2018-07-15T05:53:21.528Z,99.90
2018-07-15T05:55:49.784Z,99.90
2018-07-15T05:58:18.063Z,99.90
2018-07-15T06:00:46.344Z,99.90
2018-07-15T06:03:15.241Z,99.90
2018-07-15T06:08:36.903Z,99.90
2018-07-15T06:11:05.156Z,99.90
2018-07-15T06:13:33.457Z,99.90
2018-07-15T06:16:01.773Z,99.90
2018-07-15T06:18:30.038Z,99.90
2018-07-15T06:20:58.301Z,99.90
2018-07-15T06:23:26.592Z,99.90
2018-07-15T06:25:54.847Z,99.90
2018-07-15T06:28:23.131Z,99.90
2018-07-15T06:30:51.390Z,99.90
2018-07-15T06:33:18.915Z,99.90
2018-07-15T06:35:47.178Z,99.90
2018-07-15T06:38:16.614Z,99.90
2018-07-15T06:40:45.815Z,99.90
2018-07-15T06:43:14.593Z,99.90
2018-07-15T06:45:42.885Z,99.90
2018-07-15T06:48:11.144Z,99.90
2018-07-15T06:50:39.440Z,99.90
2018-07-15T06:53:09.222Z,99.90
2018-07-15T06:55:38.756Z,99.90
2018-07-15T06:58:07.830Z,99.90
2018-07-15T07:00:36.113Z,99.90
2018-07-15T07:03:04.376Z,99.90
2018-07-15T07:05:32.624Z,99.90
2018-07-15T07:08:00.899Z,99.90
2018-07-15T07:10:29.164Z,99.90
2018-07-15T07:12:57.412Z,99.90
2018-07-15T07:15:25.697Z,99.90
2018-07-15T07:17:53.952Z,99.90
2018-07-15T07:20:22.320Z,99.90
2018-07-15T07:22:50.505Z,99.90
2018-07-15T07:25:18.755Z,99.90
2018-07-15T07:27:47.047Z,99.90
2018-07-15T07:30:16.404Z,99.90
2018-07-15T07:32:45.735Z,99.90
2018-07-15T07:35:14.700Z,99.90
2018-07-15T07:37:42.974Z,99.90
2018-07-15T07:40:11.223Z,99.90
2018-07-15T07:42:39.484Z,99.90
2018-07-15T07:45:08.485Z,99.90
2018-07-15T07:47:36.752Z,99.90
2018-07-15T07:50:05.040Z,99.90
2018-07-15T07:52:33.292Z,99.90
2018-07-15T07:55:01.590Z,99.90
2018-07-15T07:57:29.888Z,99.90
2018-07-15T07:59:58.158Z,99.90
2018-07-15T08:02:26.419Z,99.90
2018-07-15T08:04:54.698Z,99.90
2018-07-15T08:07:22.948Z,99.90
2018-07-15T08:09:51.237Z,99.90
2018-07-15T08:12:19.484Z,99.90
2018-07-15T08:14:47.768Z,99.90
2018-07-15T08:17:16.568Z,99.90
2018-07-15T08:19:45.696Z,99.90
2018-07-15T08:22:14.700Z,99.90
2018-07-15T08:24:45.947Z,99.90
2018-07-15T08:27:14.609Z,99.90
2018-07-15T08:29:42.891Z,99.90
2018-07-15T08:32:11.132Z,99.90
2018-07-15T08:34:39.419Z,99.90
2018-07-15T08:37:08.776Z,99.90
2018-07-15T08:39:37.856Z,99.90
2018-07-15T08:42:06.149Z,99.90
2018-07-15T08:44:34.420Z,99.90
2018-07-15T08:47:02.703Z,99.90
2018-07-15T08:49:30.960Z,99.90
2018-07-15T08:51:59.240Z,99.90
2018-07-15T08:54:27.515Z,99.90
2018-07-15T08:56:55.762Z,99.90
2018-07-15T08:59:24.068Z,99.90
2018-07-15T09:01:52.317Z,99.90
2018-07-15T09:04:20.568Z,99.90
2018-07-15T09:06:48.844Z,99.90
2018-07-15T09:09:17.091Z,99.90
2018-07-15T09:11:45.372Z,99.90
2018-07-15T09:14:13.648Z,99.90
2018-07-15T09:16:41.900Z,99.90
2018-07-15T09:19:10.177Z,99.90
2018-07-15T09:21:38.436Z,99.90
2018-07-15T09:24:06.730Z,99.90
2018-07-15T09:26:34.985Z,99.90
2018-07-15T09:29:03.247Z,99.90
2018-07-15T09:31:31.527Z,99.90
2018-07-15T09:33:59.829Z,99.90
2018-07-15T09:36:28.089Z,99.90
2018-07-15T09:38:56.385Z,99.90
2018-07-15T09:41:24.628Z,99.90
2018-07-15T09:43:52.922Z,99.90
2018-07-15T09:46:21.174Z,99.90
2018-07-15T09:48:49.457Z,99.90
2018-07-15T09:51:17.709Z,99.90
2018-07-15T09:53:45.223Z,99.90
2018-07-15T09:56:13.472Z,99.90
2018-07-15T09:58:41.752Z,99.90
2018-07-15T10:01:10.057Z,99.90
2018-07-15T10:03:38.307Z,99.90
2018-07-15T10:06:06.556Z,99.90
2018-07-15T10:08:34.840Z,99.90
2018-07-15T10:11:03.113Z,99.90
2018-07-15T10:13:31.370Z,99.60
2018-07-15T10:15:59.647Z,99.40
2018-07-15T10:18:27.908Z,99.50
2018-07-15T10:20:56.192Z,99.60
2018-07-15T10:23:23.690Z,99.60
2018-07-15T10:25:51.944Z,97.80
2018-07-15T10:28:20.237Z,96.00
2018-07-15T10:30:48.521Z,97.00
2018-07-15T10:33:16.948Z,95.20
2018-07-15T10:35:45.157Z,95.00
2018-07-15T10:38:12.653Z,95.00
2018-07-15T10:40:40.931Z,93.00
2018-07-15T10:43:09.184Z,93.90
2018-07-15T10:45:37.160Z,94.00
2018-07-15T10:48:05.508Z,91.80
2018-07-15T10:50:33.797Z,92.10
2018-07-15T10:53:02.105Z,93.00
2018-07-15T10:55:30.389Z,94.50
2018-07-15T10:57:58.640Z,91.40
2018-07-15T11:00:26.928Z,91.30
2018-07-15T11:02:55.189Z,93.00
2018-07-15T11:05:23.480Z,91.20
2018-07-15T11:07:51.733Z,90.20
2018-07-15T11:10:19.976Z,89.70
2018-07-15T11:12:48.253Z,89.10
2018-07-15T11:15:15.736Z,89.20
2018-07-15T11:17:44.012Z,88.60
2018-07-15T11:20:12.260Z,85.50
2018-07-15T11:22:40.540Z,89.70
2018-07-15T11:25:08.804Z,89.70
2018-07-15T11:27:37.092Z,88.90
2018-07-15T11:30:05.373Z,89.30
2018-07-15T11:32:33.625Z,87.00
2018-07-15T11:35:01.900Z,86.40
2018-07-15T11:37:30.156Z,86.00
2018-07-15T11:39:58.445Z,86.30
2018-07-15T11:42:26.724Z,85.40
2018-07-15T11:44:54.981Z,89.60
2018-07-15T11:47:23.269Z,85.10
2018-07-15T11:49:51.556Z,87.70
2018-07-15T11:52:19.832Z,85.90
2018-07-15T11:54:48.079Z,88.00
2018-07-15T11:57:16.365Z,84.30
2018-07-15T11:59:45.046Z,80.40
2018-07-15T12:02:13.325Z,79.60
2018-07-15T12:04:41.576Z,81.60
2018-07-15T12:07:09.853Z,78.90
2018-07-15T12:09:38.144Z,78.70
2018-07-15T12:12:06.397Z,82.60
2018-07-15T12:14:34.653Z,81.90
2018-07-15T12:17:02.929Z,79.80
2018-07-15T12:19:31.211Z,82.40
2018-07-15T12:21:59.459Z,79.80
2018-07-15T12:24:27.749Z,78.80
2018-07-15T12:26:56.064Z,82.60
2018-07-15T12:29:24.313Z,77.70
2018-07-15T12:31:52.593Z,73.60
2018-07-15T12:34:20.077Z,73.70
2018-07-15T12:36:48.357Z,75.50
2018-07-15T12:39:16.660Z,77.00
2018-07-15T12:41:44.948Z,75.30
2018-07-15T12:44:13.204Z,76.30
2018-07-15T12:46:41.475Z,74.20
2018-07-15T12:49:09.748Z,76.40
2018-07-15T12:51:38.008Z,72.80
2018-07-15T12:54:07.347Z,75.40
2018-07-15T12:56:37.555Z,73.90
2018-07-15T12:59:05.805Z,74.20
2018-07-15T13:01:34.495Z,72.20
2018-07-15T13:04:02.782Z,69.00
2018-07-15T13:06:31.045Z,72.70
2018-07-15T13:08:59.326Z,68.60
2018-07-15T13:11:27.567Z,69.80
2018-07-15T13:13:55.852Z,68.50
2018-07-15T13:16:24.112Z,67.60
2018-07-15T13:18:52.392Z,66.80
2018-07-15T13:21:20.644Z,68.60
2018-07-15T13:23:48.940Z,66.40
2018-07-15T13:26:17.194Z,65.60
2018-07-15T13:28:45.483Z,64.00
2018-07-15T13:31:13.736Z,68.10
2018-07-15T13:33:41.994Z,68.80
2018-07-15T13:36:10.288Z,66.80
2018-07-15T13:38:38.540Z,67.90
2018-07-15T13:41:06.805Z,68.00
2018-07-15T13:43:35.090Z,65.50
2018-07-15T13:46:03.378Z,63.20
2018-07-15T13:48:31.663Z,61.80
2018-07-15T13:50:59.922Z,65.50
2018-07-15T13:53:28.205Z,64.10
2018-07-15T13:55:56.476Z,61.40
2018-07-15T13:58:24.001Z,61.30
2018-07-15T14:00:52.260Z,63.30
2018-07-15T14:06:13.330Z,62.40
2018-07-15T14:08:41.604Z,64.50
2018-07-15T14:11:09.882Z,61.40
2018-07-15T14:13:38.156Z,62.00
2018-07-15T14:16:06.394Z,62.40
2018-07-15T14:18:34.671Z,58.50
2018-07-15T14:21:02.921Z,61.30
2018-07-15T14:23:30.436Z,61.20
2018-07-15T14:25:58.688Z,58.30
2018-07-15T14:28:26.981Z,58.30
2018-07-15T14:30:55.234Z,58.00
2018-07-15T14:33:23.505Z,61.40
2018-07-15T14:35:51.752Z,60.20
2018-07-15T14:38:20.003Z,58.90
2018-07-15T14:40:48.271Z,57.60
2018-07-15T14:43:16.530Z,58.70
2018-07-15T14:45:44.053Z,58.60
2018-07-15T14:48:12.308Z,56.90
2018-07-15T14:50:40.592Z,58.40
2018-07-15T14:53:08.071Z,58.40
2018-07-15T14:55:36.352Z,59.20
2018-07-15T14:58:03.837Z,59.20
2018-07-15T15:00:32.084Z,58.70
2018-07-15T15:03:00.367Z,59.50
2018-07-15T15:05:28.619Z,56.80
2018-07-15T15:07:56.920Z,58.60
2018-07-15T15:10:25.170Z,56.60
2018-07-15T15:12:53.521Z,58.30
2018-07-15T15:15:21.768Z,57.90
2018-07-15T15:17:50.017Z,59.80
2018-07-15T15:20:18.288Z,60.20
2018-07-15T15:22:46.576Z,58.20
2018-07-15T15:25:14.844Z,59.90
2018-07-15T15:27:43.136Z,59.90
2018-07-15T15:30:11.388Z,57.30
2018-07-15T15:32:39.643Z,60.10
2018-07-15T15:35:07.941Z,57.80
2018-07-15T15:37:36.189Z,55.70
2018-07-15T15:40:04.463Z,57.00
2018-07-15T15:42:32.016Z,57.50
2018-07-15T15:44:59.494Z,56.80
2018-07-15T15:47:27.766Z,55.30
2018-07-15T15:49:56.012Z,54.60
2018-07-15T15:52:24.309Z,57.00
2018-07-15T15:54:51.795Z,57.20
2018-07-15T15:57:20.071Z,53.90
2018-07-15T15:59:48.352Z,54.00
2018-07-15T16:02:16.634Z,54.60
2018-07-15T16:04:44.924Z,58.20
2018-07-15T16:07:13.171Z,57.80
2018-07-15T16:09:41.415Z,58.70
2018-07-15T16:12:09.692Z,60.10
2018-07-15T16:14:37.948Z,58.60
2018-07-15T16:17:06.228Z,57.60
2018-07-15T16:19:34.479Z,57.50
2018-07-15T16:22:02.764Z,54.70
2018-07-15T16:24:30.248Z,54.70
2018-07-15T16:26:58.523Z,56.80
2018-07-15T16:29:26.780Z,55.10
2018-07-15T16:31:55.053Z,58.60
2018-07-15T16:34:23.301Z,56.90
2018-07-15T16:36:51.588Z,57.00
2018-07-15T16:39:19.829Z,56.70
2018-07-15T16:41:48.076Z,59.40
2018-07-15T16:44:16.350Z,57.50
2018-07-15T16:46:44.640Z,58.20
2018-07-15T16:49:12.892Z,56.20
2018-07-15T16:51:41.170Z,55.40
2018-07-15T16:54:09.445Z,56.40
2018-07-15T16:56:38.584Z,57.60
2018-07-15T16:59:06.883Z,56.40
2018-07-15T17:01:35.194Z,54.90
2018-07-15T17:04:03.396Z,56.60
2018-07-15T17:06:31.668Z,57.30
2018-07-15T17:08:59.944Z,57.60
2018-07-15T17:11:28.220Z,57.20
2018-07-15T17:13:55.699Z,56.50
2018-07-15T17:16:23.983Z,58.80
2018-07-15T17:18:52.227Z,59.00
2018-07-15T17:21:20.507Z,59.00
2018-07-15T17:23:48.809Z,56.40
2018-07-15T17:26:17.060Z,59.00
2018-07-15T17:28:45.313Z,57.30
2018-07-15T17:31:13.592Z,57.90
2018-07-15T17:33:41.869Z,59.30
2018-07-15T17:36:10.240Z,56.30
2018-07-15T17:38:38.494Z,59.60
2018-07-15T17:41:06.776Z,60.30
2018-07-15T17:43:35.054Z,60.40
2018-07-15T17:46:03.299Z,59.50
2018-07-15T17:48:31.588Z,58.10
2018-07-15T17:50:59.866Z,59.40
2018-07-15T17:53:28.156Z,59.00
2018-07-15T17:55:56.448Z,61.20
2018-07-15T17:58:24.703Z,58.50
2018-07-15T18:00:52.968Z,59.90
2018-07-15T18:03:21.248Z,59.70
2018-07-15T18:05:49.496Z,58.20
2018-07-15T18:08:17.772Z,60.40
2018-07-15T18:10:46.020Z,58.80
2018-07-15T18:13:15.241Z,59.60
2018-07-15T18:15:43.521Z,62.20
2018-07-15T18:18:11.779Z,63.70
2018-07-15T18:20:40.125Z,61.30
2018-07-15T18:23:09.282Z,62.20
2018-07-15T18:25:37.536Z,62.80
2018-07-15T18:28:06.817Z,62.50
2018-07-15T18:30:35.070Z,63.30
2018-07-15T18:33:03.347Z,61.60
2018-07-15T18:35:31.604Z,61.50
2018-07-15T18:37:59.872Z,63.20
2018-07-15T18:40:28.148Z,62.80
2018-07-15T18:42:55.648Z,62.80
2018-07-15T18:45:25.837Z,62.30
2018-07-15T18:47:54.112Z,62.90
2018-07-15T18:50:22.360Z,62.60
2018-07-15T18:52:50.632Z,64.10
2018-07-15T18:55:18.890Z,64.10
2018-07-15T18:57:47.192Z,64.80
2018-07-15T19:00:15.449Z,66.00
2018-07-15T19:02:42.940Z,66.20
2018-07-15T19:05:11.216Z,65.60
2018-07-15T19:07:39.468Z,65.40
2018-07-15T19:10:08.752Z,66.00
2018-07-15T19:12:37.014Z,64.20
2018-07-15T19:15:05.305Z,66.40
2018-07-15T19:17:33.589Z,67.20
2018-07-15T19:20:01.848Z,68.50
2018-07-15T19:22:30.127Z,66.40
2018-07-15T19:24:58.378Z,66.50
2018-07-15T19:27:26.659Z,66.70
2018-07-15T19:29:54.944Z,68.50
2018-07-15T19:32:23.213Z,67.60
2018-07-15T19:34:51.492Z,66.80
2018-07-15T19:37:19.740Z,66.40
2018-07-15T19:39:48.025Z,67.70
2018-07-15T19:42:16.335Z,69.00
2018-07-15T19:44:44.577Z,69.50
2018-07-15T19:47:12.838Z,70.00
2018-07-15T19:49:41.116Z,69.60
2018-07-15T19:52:09.363Z,69.40
2018-07-15T19:54:37.635Z,69.50
2018-07-15T19:57:09.189Z,71.80
2018-07-15T19:59:37.506Z,71.40
2018-07-15T20:02:05.752Z,72.20
2018-07-15T20:04:33.997Z,71.70
2018-07-15T20:07:02.284Z,71.90
2018-07-15T20:09:30.565Z,71.90
2018-07-15T20:11:58.816Z,72.40
2018-07-15T20:14:27.121Z,72.20
2018-07-15T20:16:55.401Z,73.50
2018-07-15T20:19:23.667Z,72.50
2018-07-15T20:21:51.965Z,75.00
2018-07-15T20:24:20.212Z,72.70
2018-07-15T20:26:48.488Z,73.70
2018-07-15T20:29:16.752Z,75.10
2018-07-15T20:31:45.047Z,74.30
2018-07-15T20:34:13.326Z,76.00
2018-07-15T20:36:41.650Z,77.40
2018-07-15T20:39:09.933Z,76.60
2018-07-15T20:41:38.208Z,76.60
2018-07-15T20:44:06.504Z,76.80
2018-07-15T20:46:34.803Z,78.10
2018-07-15T20:49:03.072Z,77.40
2018-07-15T20:51:31.357Z,78.10
2018-07-15T20:53:59.621Z,78.60
2018-07-15T20:56:33.132Z,78.60
2018-07-15T20:59:01.389Z,78.90
2018-07-15T21:04:22.999Z,78.70
2018-07-15T21:06:51.295Z,78.10
2018-07-15T21:09:19.552Z,80.60
2018-07-15T21:11:47.813Z,80.90
2018-07-15T21:14:16.092Z,80.40
2018-07-15T21:16:44.335Z,82.20
2018-07-15T21:19:12.686Z,82.80
2018-07-15T21:21:40.901Z,83.20
2018-07-15T21:24:09.408Z,81.90
2018-07-15T21:26:37.691Z,82.40
2018-07-15T21:29:06.042Z,81.30
2018-07-15T21:31:34.398Z,80.60
2018-07-15T21:34:02.561Z,81.80
2018-07-15T21:36:30.856Z,83.70
2018-07-15T21:38:59.133Z,84.40
2018-07-15T21:41:27.414Z,82.90
2018-07-15T21:43:56.657Z,84.70
2018-07-15T21:46:24.956Z,85.10
2018-07-15T21:48:53.215Z,85.00
2018-07-15T21:51:21.505Z,84.30
2018-07-15T21:53:49.754Z,84.70
2018-07-15T21:56:18.036Z,85.10
2018-07-15T21:58:51.636Z,85.10
2018-07-15T22:01:19.926Z,85.60
2018-07-15T22:03:48.207Z,85.30
2018-07-15T22:06:16.496Z,83.60
2018-07-15T22:08:44.752Z,85.20
2018-07-15T22:11:13.151Z,85.80
2018-07-15T22:13:41.453Z,87.00
2018-07-15T22:16:09.753Z,87.50
2018-07-15T22:18:44.856Z,87.90
2018-07-15T22:21:13.200Z,88.70
2018-07-15T22:23:41.464Z,88.20
2018-07-15T22:26:09.731Z,88.60
2018-07-15T22:28:38.017Z,88.30
2018-07-15T22:31:06.335Z,88.90
2018-07-15T22:33:34.577Z,89.50
2018-07-15T22:36:02.063Z,89.50
2018-07-15T22:38:30.339Z,90.20
2018-07-15T22:40:58.590Z,90.40
2018-07-15T22:43:26.877Z,90.30
2018-07-15T22:45:54.373Z,90.30
2018-07-15T22:48:22.667Z,90.30
2018-07-15T22:50:50.912Z,91.00
2018-07-15T22:53:19.220Z,90.90
2018-07-15T22:55:47.463Z,91.00
2018-07-15T22:58:16.696Z,90.90
2018-07-15T23:00:44.982Z,91.70
2018-07-15T23:03:13.243Z,91.90
2018-07-15T23:06:06.353Z,91.70
2018-07-15T23:08:34.600Z,91.90
2018-07-15T23:11:02.895Z,92.10
2018-07-15T23:13:31.140Z,92.00
2018-07-15T23:16:02.710Z,91.80
2018-07-15T23:18:30.968Z,92.20
2018-07-15T23:20:59.260Z,92.80
2018-07-15T23:23:27.549Z,92.50
2018-07-15T23:26:02.652Z,92.70
2018-07-15T23:28:30.935Z,92.00
2018-07-15T23:31:00.217Z,91.80
2018-07-15T23:36:21.108Z,91.90
2018-07-15T23:38:49.406Z,93.30
2018-07-15T23:41:17.669Z,93.00
2018-07-15T23:43:45.951Z,93.40
2018-07-15T23:46:13.476Z,93.40
2018-07-15T23:48:42.733Z,93.90
2018-07-15T23:51:10.984Z,93.20
2018-07-15T23:53:49.315Z,93.80
2018-07-15T23:56:17.560Z,94.60
2018-07-15T23:58:46.806Z,94.20
